Time;durP1;ratioP1;P1;durP2;ratioP2;P2;SDS_P1;SDS_P2;PMS_P1;PMS_P2;Temp;Humidity;BMP_temperature;BMP_pressure;BME280_temperature;BME280_humidity;BME280_pressure;Samples;Min_cycle;Max_cycle;Signal;HPM_P1;HPM_P2
2021/10/13 00:01:49;;;;;;;;;50.50;43.25;15.00;54.00;;;;;;4861946;29;8801;-66
2021/10/13 00:04:15;;;;;;;;;49.00;42.00;15.10;54.10;;;;;;4861867;29;9464;-66
2021/10/13 00:06:41;;;;;;;;;50.25;43.00;15.10;53.90;;;;;;4861620;29;8806;-66
2021/10/13 00:09:07;;;;;;;;;52.25;44.75;15.10;54.00;;;;;;4861559;29;8785;-66
2021/10/13 00:11:34;;;;;;;;;47.00;41.25;15.00;54.10;;;;;;4861598;29;8857;-66
2021/10/13 00:14:01;;;;;;;;;50.25;43.25;15.00;54.00;;;;;;4861783;29;9432;-67
2021/10/13 00:16:29;;;;;;;;;52.00;44.50;15.00;54.40;;;;;;4861827;29;8816;-66
2021/10/13 00:18:55;;;;;;;;;51.75;44.00;15.00;54.40;;;;;;4861570;29;8805;-66
2021/10/13 00:21:21;;;;;;;;;54.00;45.25;14.90;54.60;;;;;;4861474;29;8814;-66
2021/10/13 00:23:47;;;;;;;;;53.00;45.25;14.90;54.60;;;;;;4861792;29;8781;-66
2021/10/13 00:26:13;;;;;;;;;50.00;43.25;15.00;54.40;;;;;;4860737;29;9464;-66
2021/10/13 00:28:38;;;;;;;;;51.75;45.25;15.00;54.30;;;;;;4861489;29;8782;-66
2021/10/13 00:31:04;;;;;;;;;53.00;44.75;15.00;54.30;;;;;;4861387;29;8829;-66
2021/10/13 00:33:30;;;;;;;;;50.25;44.50;14.90;54.50;;;;;;4861639;29;8817;-66
2021/10/13 00:35:56;;;;;;;;;51.75;44.75;14.90;55.60;;;;;;4861427;29;9532;-67
2021/10/13 00:38:21;;;;;;;;;52.00;45.00;14.80;54.70;;;;;;4861396;29;8781;-67
2021/10/13 00:40:47;;;;;;;;;47.75;41.50;14.80;54.70;;;;;;4861543;29;8829;-67
2021/10/13 00:43:13;;;;;;;;;44.00;40.50;14.80;54.60;;;;;;4864258;29;8816;-67
2021/10/13 00:45:39;;;;;;;;;46.25;42.00;14.70;54.80;;;;;;4864638;29;8798;-67
2021/10/13 00:48:05;;;;;;;;;47.25;41.25;14.70;54.70;;;;;;4864743;29;8877;-67
2021/10/13 00:50:31;;;;;;;;;50.75;43.75;14.50;54.90;;;;;;4864478;29;8837;-67
2021/10/13 00:52:56;;;;;;;;;48.50;43.25;14.50;55.30;;;;;;4864808;29;8808;-67
2021/10/13 00:55:22;;;;;;;;;48.50;42.50;14.50;55.40;;;;;;4864505;29;9492;-66
2021/10/13 00:57:51;;;;;;;;;51.00;44.00;14.50;55.50;;;;;;4864780;29;8801;-66
2021/10/13 01:00:18;;;;;;;;;49.75;43.75;14.50;55.50;;;;;;4864427;29;9001;-66
2021/10/13 01:03:12;;;;;;;;;54.00;46.00;14.50;55.40;;;;;;4864369;29;8806;-67
2021/10/13 01:06:08;;;;;;;;;51.75;44.25;14.50;56.40;;;;;;4864516;29;8770;-67
2021/10/13 01:08:55;;;;;;;;;45.50;40.50;14.50;55.40;;;;;;4864317;29;8801;-66
2021/10/13 01:11:38;;;;;;;;;53.75;46.00;14.40;55.40;;;;;;4864286;29;9509;-67
2021/10/13 01:14:25;;;;;;;;;53.00;45.00;14.50;55.30;;;;;;4864506;29;8801;-66
2021/10/13 01:17:11;;;;;;;;;51.50;45.50;14.50;55.20;;;;;;4864185;29;8892;-66
2021/10/13 01:19:46;;;;;;;;;53.25;45.25;14.50;55.40;;;;;;4864431;29;8801;-66
2021/10/13 01:22:21;;;;;;;;;49.75;43.25;14.50;55.30;;;;;;4864188;29;8773;-67
2021/10/13 01:24:59;;;;;;;;;53.75;46.00;14.50;55.30;;;;;;4864093;29;8797;-66
2021/10/13 01:27:58;;;;;;;;;58.50;49.50;14.50;55.20;;;;;;4864227;29;8781;-67
2021/10/13 01:30:29;;;;;;;;;57.75;49.50;14.50;55.10;;;;;;4864116;29;9532;-66
2021/10/13 01:33:08;;;;;;;;;55.25;46.50;14.50;55.20;;;;;;4863886;29;8869;-67
2021/10/13 01:35:39;;;;;;;;;54.50;46.50;14.40;55.40;;;;;;4863853;29;8793;-67
2021/10/13 01:38:07;;;;;;;;;54.25;46.75;14.40;55.30;;;;;;4863820;29;8936;-66
2021/10/13 01:40:35;;;;;;;;;43.00;39.50;14.40;55.30;;;;;;4863663;29;8822;-66
2021/10/13 01:43:04;;;;;;;;;51.75;45.25;14.30;55.10;;;;;;4863682;29;8881;-66
2021/10/13 01:45:32;;;;;;;;;52.50;45.75;14.20;55.50;;;;;;4863689;29;8814;-66
2021/10/13 01:47:59;;;;;;;;;54.50;46.50;14.30;55.30;;;;;;4863988;29;8793;-66
2021/10/13 01:50:25;;;;;;;;;59.75;51.50;14.30;55.20;;;;;;4863491;29;8855;-66
2021/10/13 01:52:53;;;;;;;;;53.00;47.00;14.30;55.40;;;;;;4863593;29;8789;-66
2021/10/13 01:55:20;;;;;;;;;56.00;48.00;14.40;55.20;;;;;;4863709;29;8812;-66
2021/10/13 01:57:49;;;;;;;;;51.00;44.75;14.40;55.00;;;;;;4863396;29;8822;-67
2021/10/13 02:00:17;;;;;;;;;51.50;44.50;14.40;54.70;;;;;;4863329;29;8853;-67
2021/10/13 02:02:46;;;;;;;;;44.25;41.00;14.40;55.00;;;;;;4863295;29;8801;-66
2021/10/13 02:05:14;;;;;;;;;54.00;46.50;14.30;54.80;;;;;;4863274;29;8939;-66
2021/10/13 02:07:41;;;;;;;;;49.00;42.75;14.30;55.00;;;;;;4863474;29;8793;-66
2021/10/13 02:10:10;;;;;;;;;50.50;42.75;14.20;55.00;;;;;;4862999;29;8864;-66
2021/10/13 02:12:45;;;;;;;;;45.25;41.50;14.30;54.90;;;;;;4863024;29;8939;-66
2021/10/13 02:15:13;;;;;;;;;45.50;41.25;14.20;54.90;;;;;;4863199;29;8869;-66
2021/10/13 02:17:42;;;;;;;;;52.50;45.50;14.20;55.10;;;;;;4863328;29;9464;-66
2021/10/13 02:20:08;;;;;;;;;48.00;42.75;14.30;54.80;;;;;;4863024;29;8797;-66
2021/10/13 02:22:35;;;;;;;;;43.25;39.50;14.20;54.90;;;;;;4863026;29;8872;-66
2021/10/13 02:25:01;;;;;;;;;47.00;41.50;14.10;55.00;;;;;;4863215;29;8786;-66
2021/10/13 02:27:46;;;;;;;;;49.50;42.00;14.00;55.30;;;;;;4863140;29;9441;-66
2021/10/13 02:30:12;;;;;;;;;44.75;40.50;14.00;55.40;;;;;;4862872;29;8865;-67
2021/10/13 02:32:38;;;;;;;;;47.75;42.25;14.00;55.50;;;;;;4862793;29;8885;-66
2021/10/13 02:35:05;;;;;;;;;48.00;42.75;14.00;55.30;;;;;;4863046;29;8793;-66
2021/10/13 02:37:31;;;;;;;;;45.50;41.25;14.10;55.20;;;;;;4863035;29;8840;-66
2021/10/13 02:39:57;;;;;;;;;48.75;42.50;14.20;55.20;;;;;;4862815;29;8821;-66
2021/10/13 02:42:23;;;;;;;;;44.50;40.25;14.10;54.80;;;;;;4862629;29;8794;-66
2021/10/13 02:44:49;;;;;;;;;43.25;39.75;14.20;54.80;;;;;;4862602;29;8797;-66
2021/10/13 02:47:30;;;;;;;;;52.50;44.75;14.20;54.80;;;;;;4862800;29;8896;-67
2021/10/13 02:50:02;;;;;;;;;43.00;40.00;14.20;54.80;;;;;;4862540;29;8825;-67
2021/10/13 02:52:51;;;;;;;;;47.00;41.50;14.20;54.90;;;;;;4862758;29;8805;-66
2021/10/13 02:55:27;;;;;;;;;42.00;39.00;14.20;54.80;;;;;;4836201;29;8802;-67
2021/10/13 02:58:01;;;;;;;;;50.75;44.25;14.10;54.90;;;;;;4862677;29;8809;-66
2021/10/13 03:00:30;;;;;;;;;43.75;40.00;14.10;56.00;;;;;;4862561;29;8938;-66
2021/10/13 03:03:10;;;;;;;;;44.50;40.25;14.20;55.00;;;;;;4862361;29;8785;-66
2021/10/13 03:05:39;;;;;;;;;42.75;39.25;14.20;54.90;;;;;;4861763;29;8842;-66
2021/10/13 03:08:08;;;;;;;;;46.50;41.75;14.10;55.20;;;;;;4862607;29;8762;-66
2021/10/13 03:10:35;;;;;;;;;45.25;40.50;14.00;55.30;;;;;;4862108;29;8863;-66
2021/10/13 03:13:05;;;;;;;;;43.00;39.75;14.00;55.50;;;;;;4862218;29;8797;-67
2021/10/13 03:15:33;;;;;;;;;43.00;39.00;13.90;55.80;;;;;;4862206;29;8816;-66
2021/10/13 03:18:00;;;;;;;;;45.00;39.50;14.00;55.80;;;;;;4862340;29;8782;-66
2021/10/13 03:20:28;;;;;;;;;41.25;39.50;14.00;56.00;;;;;;4862362;29;8897;-66
2021/10/13 03:22:59;;;;;;;;;41.75;39.00;14.00;55.70;;;;;;4862151;29;8804;-66
2021/10/13 03:25:28;;;;;;;;;44.50;39.75;14.00;55.90;;;;;;4862099;29;9467;-66
2021/10/13 03:27:54;;;;;;;;;40.75;38.00;14.00;55.90;;;;;;4862288;29;8903;-66
2021/10/13 03:30:20;;;;;;;;;46.00;41.00;14.00;55.80;;;;;;4861885;29;8940;-66
2021/10/13 03:32:47;;;;;;;;;44.00;40.50;14.00;55.80;;;;;;4862229;29;8790;-66
2021/10/13 03:35:39;;;;;;;;;39.75;36.25;13.90;55.80;;;;;;4861965;29;8805;-66
2021/10/13 03:38:06;;;;;;;;;38.00;37.00;13.90;56.10;;;;;;4859511;29;9418;-66
2021/10/13 03:40:34;;;;;;;;;42.75;38.50;14.00;56.10;;;;;;4862335;29;9479;-66
2021/10/13 03:43:00;;;;;;;;;46.00;39.50;13.90;55.80;;;;;;4861889;29;8802;-66
2021/10/13 03:45:26;;;;;;;;;42.75;40.00;13.90;56.10;;;;;;4862056;29;9586;-66
2021/10/13 03:47:52;;;;;;;;;41.25;39.75;13.90;55.90;;;;;;4861949;29;8809;-66
2021/10/13 03:50:20;;;;;;;;;36.25;35.50;13.90;55.80;;;;;;4861776;29;8920;-66
2021/10/13 03:52:47;;;;;;;;;38.25;36.75;13.90;56.00;;;;;;4861796;29;8828;-66
2021/10/13 03:55:15;;;;;;;;;38.00;36.75;13.80;56.00;;;;;;4861799;29;8903;-66
2021/10/13 03:57:42;;;;;;;;;38.00;36.00;13.80;55.90;;;;;;4861730;29;8809;-66
2021/10/13 04:00:11;;;;;;;;;38.50;37.00;13.70;56.00;;;;;;4861710;29;8786;-66
2021/10/13 04:02:36;;;;;;;;;37.00;36.25;13.80;55.90;;;;;;4861938;29;8793;-66
2021/10/13 04:05:03;;;;;;;;;33.75;33.50;13.80;55.90;;;;;;4861715;29;8816;-66
2021/10/13 04:07:28;;;;;;;;;40.25;38.00;13.60;55.90;;;;;;4861915;29;8908;-66
2021/10/13 04:09:54;;;;;;;;;37.25;35.50;13.50;56.10;;;;;;4861609;29;8968;-67
2021/10/13 04:12:20;;;;;;;;;33.00;33.00;13.60;56.30;;;;;;4861388;29;9531;-67
2021/10/13 04:14:46;;;;;;;;;41.75;39.00;13.50;55.90;;;;;;4861902;29;8948;-66
2021/10/13 04:17:12;;;;;;;;;42.25;40.00;13.50;55.90;;;;;;4864444;29;8785;-66
2021/10/13 04:19:38;;;;;;;;;45.75;41.00;13.60;56.10;;;;;;4865173;29;8815;-66
2021/10/13 04:22:04;;;;;;;;;45.25;40.75;13.60;55.90;;;;;;4865213;29;8855;-66
2021/10/13 04:24:30;;;;;;;;;51.25;44.00;13.60;56.00;;;;;;4864875;29;8801;-67
2021/10/13 04:26:56;;;;;;;;;52.50;45.50;13.50;56.00;;;;;;4865081;29;8808;-66
2021/10/13 04:29:22;;;;;;;;;55.50;48.00;13.50;56.00;;;;;;4865076;29;8785;-66
2021/10/13 04:31:48;;;;;;;;;52.25;44.75;13.60;55.90;;;;;;4864795;29;9686;-66
2021/10/13 04:34:13;;;;;;;;;50.50;43.25;13.60;55.70;;;;;;4865076;29;8793;-66
2021/10/13 04:36:39;;;;;;;;;45.75;40.50;13.50;55.90;;;;;;4864798;29;8829;-67
2021/10/13 04:39:05;;;;;;;;;32.75;32.75;13.40;56.00;;;;;;4864545;29;8829;-66
2021/10/13 04:41:33;;;;;;;;;53.25;45.50;13.30;57.20;;;;;;4864837;29;8825;-67
2021/10/13 04:43:59;;;;;;;;;54.75;46.75;13.30;56.40;;;;;;4864513;29;8873;-66
2021/10/13 04:46:25;;;;;;;;;46.00;41.50;13.40;56.40;;;;;;4864782;29;8905;-66
2021/10/13 04:48:51;;;;;;;;;52.50;45.75;13.40;56.30;;;;;;4864608;29;9464;-66
2021/10/13 04:51:16;;;;;;;;;42.00;39.00;13.50;56.00;;;;;;4864314;29;8833;-66
2021/10/13 04:53:42;;;;;;;;;47.50;42.25;13.40;56.10;;;;;;4864484;29;9433;-66
2021/10/13 04:56:08;;;;;;;;;43.00;39.00;13.40;56.50;;;;;;4864519;29;8802;-66
2021/10/13 04:58:34;;;;;;;;;30.75;29.75;13.50;56.10;;;;;;4864218;29;8793;-66
2021/10/13 05:01:00;;;;;;;;;41.75;38.50;13.40;55.90;;;;;;4864333;29;8844;-66
2021/10/13 05:03:26;;;;;;;;;44.75;40.75;13.40;56.10;;;;;;4863611;29;8805;-66
2021/10/13 05:05:52;;;;;;;;;51.00;45.25;13.30;56.10;;;;;;4863560;29;8806;-66
2021/10/13 05:08:18;;;;;;;;;47.00;42.75;13.30;56.20;;;;;;4863446;29;8777;-66
2021/10/13 05:10:44;;;;;;;;;52.00;45.00;13.40;56.10;;;;;;4863676;29;8848;-66
2021/10/13 05:13:09;;;;;;;;;54.25;47.00;13.30;55.90;;;;;;4863869;29;8805;-66
2021/10/13 05:15:36;;;;;;;;;33.50;33.50;13.30;56.30;;;;;;4863755;29;8877;-66
2021/10/13 05:18:02;;;;;;;;;57.50;48.50;13.30;56.10;;;;;;4863735;29;8872;-66
2021/10/13 05:20:28;;;;;;;;;55.50;48.25;13.40;56.00;;;;;;4863952;29;8794;-67
2021/10/13 05:22:53;;;;;;;;;60.00;51.00;13.30;56.10;;;;;;4863490;29;8826;-66
2021/10/13 05:25:19;;;;;;;;;61.00;50.00;13.20;56.30;;;;;;4863972;29;8797;-66
2021/10/13 05:27:45;;;;;;;;;54.75;47.25;13.40;56.30;;;;;;4863469;29;8802;-65
2021/10/13 05:30:11;;;;;;;;;50.75;44.25;13.30;56.00;;;;;;4863871;29;8916;-65
2021/10/13 05:32:37;;;;;;;;;56.00;47.50;13.40;56.10;;;;;;4864050;29;8908;-65
2021/10/13 05:35:03;;;;;;;;;57.00;48.75;13.50;55.90;;;;;;4863833;29;8916;-65
2021/10/13 05:37:29;;;;;;;;;58.75;50.00;13.40;55.80;;;;;;4863749;29;8805;-64
2021/10/13 05:39:55;;;;;;;;;60.00;51.25;13.50;55.80;;;;;;4863595;29;8956;-65
2021/10/13 05:42:20;;;;;;;;;63.75;53.00;13.50;55.30;;;;;;4863676;29;8885;-65
2021/10/13 05:44:46;;;;;;;;;61.75;52.25;13.60;55.20;;;;;;4863660;29;8831;-65
2021/10/13 05:47:12;;;;;;;;;54.25;46.50;13.70;55.10;;;;;;4863544;29;8820;-70
2021/10/13 05:49:38;;;;;;;;;50.00;44.75;13.70;54.90;;;;;;4863478;29;8790;-70
2021/10/13 05:52:05;;;;;;;;;53.75;46.00;13.50;55.00;;;;;;4863567;29;8810;-70
2021/10/13 05:54:31;;;;;;;;;51.25;44.00;13.60;55.60;;;;;;4863449;29;8813;-70
2021/10/13 05:56:57;;;;;;;;;49.50;43.75;13.60;55.20;;;;;;4862263;29;8828;-70
2021/10/13 05:59:23;;;;;;;;;45.00;40.00;13.70;55.10;;;;;;4863645;29;8893;-69
2021/10/13 06:01:49;;;;;;;;;42.00;39.25;13.70;55.10;;;;;;4863609;29;9475;-70
2021/10/13 06:04:15;;;;;;;;;43.50;39.75;13.70;55.20;;;;;;4863326;29;8817;-69
2021/10/13 06:06:41;;;;;;;;;32.50;32.25;13.60;55.30;;;;;;4863522;29;8817;-71
2021/10/13 06:09:07;;;;;;;;;43.25;39.50;13.70;55.30;;;;;;4863369;29;8801;-69
2021/10/13 06:11:33;;;;;;;;;38.50;37.00;13.80;54.90;;;;;;4863022;29;8951;-70
2021/10/13 06:13:59;;;;;;;;;37.50;36.00;14.00;54.70;;;;;;4863091;29;8832;-70
2021/10/13 06:16:25;;;;;;;;;36.75;35.50;14.10;54.50;;;;;;4863213;29;8896;-71
2021/10/13 06:18:51;;;;;;;;;34.00;34.00;14.20;54.40;;;;;;4863009;29;8851;-71
2021/10/13 06:21:20;;;;;;;;;43.00;39.50;14.20;54.10;;;;;;4863301;29;8888;-70
2021/10/13 06:23:47;;;;;;;;;43.75;39.75;14.30;53.70;;;;;;4863070;29;8789;-70
2021/10/13 06:26:13;;;;;;;;;42.25;40.00;14.20;53.90;;;;;;4862836;29;8882;-69
2021/10/13 06:28:39;;;;;;;;;48.50;41.75;14.30;53.90;;;;;;4862846;29;8801;-71
2021/10/13 06:31:05;;;;;;;;;46.00;41.75;14.40;53.80;;;;;;4862878;29;8867;-71
2021/10/13 06:33:32;;;;;;;;;42.25;38.50;14.40;53.30;;;;;;4862797;29;8847;-72
2021/10/13 06:36:00;;;;;;;;;51.50;44.25;14.60;53.40;;;;;;4862787;29;8801;-71
2021/10/13 06:38:26;;;;;;;;;48.50;42.50;14.70;53.30;;;;;;4862445;29;8975;-72
2021/10/13 06:40:52;;;;;;;;;46.50;41.75;14.60;53.30;;;;;;4862168;29;8833;-70
2021/10/13 06:43:18;;;;;;;;;45.50;40.00;14.60;53.20;;;;;;4862717;29;8812;-69
2021/10/13 06:45:43;;;;;;;;;45.75;40.00;14.50;53.10;;;;;;4862833;29;8846;-70
2021/10/13 06:48:09;;;;;;;;;39.00;36.25;14.40;53.40;;;;;;4862802;29;8939;-68
2021/10/13 06:50:36;;;;;;;;;37.00;36.50;14.30;53.70;;;;;;4862413;29;8849;-70
2021/10/13 06:53:03;;;;;;;;;39.75;38.00;14.40;54.00;;;;;;4861972;29;8906;-70
2021/10/13 06:55:29;;;;;;;;;34.25;34.00;14.40;54.00;;;;;;4862606;29;8806;-69
2021/10/13 06:57:55;;;;;;;;;37.25;36.00;14.50;54.00;;;;;;4862629;29;8830;-65
2021/10/13 07:00:21;;;;;;;;;37.00;35.50;14.40;54.00;;;;;;4862342;29;8821;-66
2021/10/13 07:02:46;;;;;;;;;43.50;38.75;14.40;53.90;;;;;;4862551;29;8805;-65
2021/10/13 07:05:12;;;;;;;;;37.00;35.50;14.60;54.00;;;;;;4862211;29;9482;-67
2021/10/13 07:07:47;;;;;;;;;42.00;39.25;14.70;53.70;;;;;;4861993;29;8809;-65
2021/10/13 07:10:13;;;;;;;;;36.75;35.75;14.90;53.30;;;;;;4862113;29;8869;-65
2021/10/13 07:12:40;;;;;;;;;37.25;35.00;14.90;53.10;;;;;;4862065;29;8856;-66
2021/10/13 07:15:07;;;;;;;;;33.00;33.00;15.00;52.80;;;;;;4862140;29;8802;-65
2021/10/13 07:17:33;;;;;;;;;41.00;38.50;14.90;52.30;;;;;;4862135;29;8801;-64
2021/10/13 07:20:01;;;;;;;;;38.00;35.75;14.80;52.40;;;;;;4862091;29;8904;-67
2021/10/13 07:22:27;;;;;;;;;35.67;34.67;14.80;52.60;;;;;;4861868;29;8835;-66
2021/10/13 07:24:55;;;;;;;;;35.00;34.50;14.90;52.90;;;;;;4862002;29;8870;-65
2021/10/13 07:27:21;;;;;;;;;35.75;35.00;14.80;52.60;;;;;;4861864;29;8941;-65
2021/10/13 07:29:54;;;;;;;;;37.25;36.00;14.70;53.20;;;;;;4861890;29;8943;-65
2021/10/13 07:32:20;;;;;;;;;40.75;37.50;14.80;53.90;;;;;;4861987;29;8806;-65
2021/10/13 07:34:46;;;;;;;;;39.75;37.00;15.10;53.40;;;;;;4861867;29;8801;-67
2021/10/13 07:37:12;;;;;;;;;45.75;40.25;15.40;52.70;;;;;;4860626;29;9575;-67
2021/10/13 07:39:40;;;;;;;;;51.25;45.25;15.60;51.90;;;;;;4861763;29;8960;-68
2021/10/13 07:42:05;;;;;;;;;48.50;42.00;15.70;51.40;;;;;;4862115;29;8853;-68
2021/10/13 07:44:31;;;;;;;;;54.50;47.50;15.90;51.50;;;;;;4861977;29;8827;-68
2021/10/13 07:46:57;;;;;;;;;45.75;40.00;16.10;51.20;;;;;;4862083;29;8797;-67
2021/10/13 07:49:23;;;;;;;;;44.00;39.00;16.10;50.40;;;;;;4861820;29;8805;-68
2021/10/13 07:51:49;;;;;;;;;37.75;35.00;16.20;50.20;;;;;;4864239;29;8895;-67
2021/10/13 07:54:15;;;;;;;;;41.75;38.25;16.10;50.20;;;;;;4865656;29;8806;-67
2021/10/13 07:56:41;;;;;;;;;40.50;37.50;15.90;50.30;;;;;;4865602;29;8801;-68
2021/10/13 07:59:07;;;;;;;;;38.75;35.75;15.70;50.40;;;;;;4865827;29;8801;-67
2021/10/13 08:01:33;;;;;;;;;36.75;34.25;15.70;51.20;;;;;;4865465;29;8785;-68
2021/10/13 08:03:59;;;;;;;;;43.25;40.00;15.90;51.60;;;;;;4865452;29;8874;-68
2021/10/13 08:06:25;;;;;;;;;41.75;38.25;16.00;51.00;;;;;;4865412;29;8817;-67
2021/10/13 08:08:50;;;;;;;;;45.25;40.00;16.10;50.80;;;;;;4865593;29;8821;-67
2021/10/13 08:11:16;;;;;;;;;46.25;40.50;16.00;50.80;;;;;;4865311;29;8869;-67
2021/10/13 08:13:42;;;;;;;;;35.75;34.00;16.10;51.00;;;;;;4865302;29;9400;-67
2021/10/13 08:16:08;;;;;;;;;44.00;40.00;16.20;50.70;;;;;;4864166;29;8805;-66
2021/10/13 08:18:35;;;;;;;;;48.50;42.00;16.40;50.60;;;;;;4865468;29;8801;-68
2021/10/13 08:21:01;;;;;;;;;42.25;38.25;16.50;51.00;;;;;;4865177;29;8857;-67
2021/10/13 08:23:27;;;;;;;;;39.25;36.00;16.70;50.40;;;;;;4865290;29;8797;-67
2021/10/13 08:25:55;;;;;;;;;42.25;38.25;16.50;50.00;;;;;;4865118;29;8823;-66
2021/10/13 08:28:21;;;;;;;;;40.25;37.00;16.60;49.90;;;;;;4865195;29;8816;-67
2021/10/13 08:30:47;;;;;;;;;37.25;34.25;16.80;49.90;;;;;;4864883;29;8832;-66
2021/10/13 08:33:13;;;;;;;;;39.75;36.75;16.90;48.90;;;;;;4864842;29;8801;-67
2021/10/13 08:35:39;;;;;;;;;37.25;34.75;16.70;48.80;;;;;;4864777;29;8816;-68
2021/10/13 08:38:05;;;;;;;;;36.00;34.25;16.80;49.50;;;;;;4864561;29;9537;-68
2021/10/13 08:40:31;;;;;;;;;32.33;32.33;16.80;48.60;;;;;;4864927;29;8841;-68
2021/10/13 08:43:02;;;;;;;;;22.67;22.67;16.80;49.50;;;;;;4864463;29;8777;-68
2021/10/13 08:45:29;;;;;;;;;37.00;33.33;16.80;48.00;;;;;;4864550;29;8802;-66
2021/10/13 08:47:56;;;;;;;;;43.75;37.75;16.90;48.70;;;;;;4864625;29;8816;-69
2021/10/13 08:50:23;;;;;;;;;36.00;34.00;17.10;47.90;;;;;;4864360;29;8837;-68
2021/10/13 08:52:51;;;;;;;;;35.33;34.33;17.10;47.60;;;;;;4864780;29;8793;-70
2021/10/13 08:55:17;;;;;;;;;30.00;30.00;17.20;48.10;;;;;;4864647;29;8805;-69
2021/10/13 08:57:42;;;;;;;;;35.00;32.00;17.40;47.90;;;;;;4864303;29;9439;-70
2021/10/13 09:00:09;;;;;;;;;32.33;32.33;17.50;47.50;;;;;;4864523;29;8836;-76
2021/10/13 09:02:42;;;;;;;;;33.33;31.67;17.60;46.60;;;;;;4864894;29;8873;-76
2021/10/13 09:05:17;;;;;;;;;34.33;32.33;17.90;45.90;;;;;;4864466;29;8817;-76
2021/10/13 09:07:52;;;;;;;;;31.00;31.00;18.20;45.60;;;;;;4864593;29;8808;-69
2021/10/13 09:10:30;;;;;;;;;31.67;31.67;18.30;44.00;;;;;;4864198;29;8849;-69
2021/10/13 09:12:57;;;;;;;;;27.67;27.67;18.60;43.90;;;;;;4864230;29;8809;-71
2021/10/13 09:15:27;;;;;;;;;31.33;31.33;18.80;44.70;;;;;;4864558;29;8816;-69
2021/10/13 09:18:00;;;;;;;;;27.33;27.33;19.20;45.30;;;;;;4864218;29;8817;-68
2021/10/13 09:20:32;;;;;;;;;32.00;31.33;19.30;43.40;;;;;;4864170;29;8805;-70
2021/10/13 09:23:15;;;;;;;;;36.00;34.00;19.50;43.60;;;;;;4864089;29;8798;-67
2021/10/13 09:25:47;;;;;;;;;28.67;28.67;19.40;43.40;;;;;;4864082;29;8797;-67
2021/10/13 09:28:17;;;;;;;;;27.00;27.00;19.30;44.00;;;;;;4863961;29;8862;-68
2021/10/13 09:30:43;;;;;;;;;27.00;27.00;19.20;42.40;;;;;;4863889;29;8838;-69
2021/10/13 09:33:15;;;;;;;;;27.00;27.00;18.90;42.40;;;;;;4864064;29;8789;-68
2021/10/13 09:35:55;;;;;;;;;28.33;28.33;19.10;44.30;;;;;;4863570;29;8893;-68
2021/10/13 09:38:24;;;;;;;;;21.67;21.67;19.20;42.70;;;;;;4863214;29;8801;-72
2021/10/13 09:41:00;;;;;;;;;32.00;32.00;19.00;42.70;;;;;;4863539;29;8873;-68
2021/10/13 09:43:32;;;;;;;;;27.67;27.67;18.80;44.00;;;;;;4863383;29;8778;-69
2021/10/13 09:46:16;;;;;;;;;28.00;28.00;18.70;43.70;;;;;;4863311;29;8802;-68
2021/10/13 09:48:43;;;;;;;;;29.33;29.33;18.60;44.20;;;;;;4863305;29;8811;-68
2021/10/13 09:51:15;;;;;;;;;30.00;30.00;18.60;45.10;;;;;;4863154;29;8837;-68
2021/10/13 09:53:41;;;;;;;;;24.33;24.33;18.70;44.50;;;;;;4863351;29;9479;-67
2021/10/13 09:56:25;;;;;;;;;22.33;22.33;18.70;45.00;;;;;;4863825;29;8861;-68
2021/10/13 09:59:06;;;;;;;;;26.33;26.33;18.60;43.30;;;;;;4863657;29;8821;-69
2021/10/13 10:01:32;;;;;;;;;23.33;23.33;18.50;45.90;;;;;;4863653;29;9484;-68
2021/10/13 10:03:58;;;;;;;;;32.33;31.67;18.40;46.00;;;;;;4863548;29;8789;-68
2021/10/13 10:06:27;;;;;;;;;33.33;33.33;18.30;46.50;;;;;;4863038;29;8859;-69
2021/10/13 10:08:56;;;;;;;;;32.00;32.00;18.20;46.20;;;;;;4863160;29;8797;-72
2021/10/13 10:11:40;;;;;;;;;33.67;33.00;18.10;45.80;;;;;;4863197;29;8856;-71
2021/10/13 10:14:35;;;;;;;;;31.33;31.00;17.60;47.00;;;;;;4862905;29;8813;-68
2021/10/13 10:17:04;;;;;;;;;33.67;32.33;17.20;48.40;;;;;;4863184;29;8825;-69
2021/10/13 10:19:39;;;;;;;;;32.33;32.33;17.00;49.10;;;;;;4863217;29;8802;-68
2021/10/13 10:22:12;;;;;;;;;28.67;28.67;16.90;49.70;;;;;;4862956;29;8881;-69
2021/10/13 10:24:52;;;;;;;;;34.33;33.00;16.80;50.60;;;;;;4862879;29;8821;-73
2021/10/13 10:27:24;;;;;;;;;39.33;36.00;17.00;51.20;;;;;;4862836;29;8960;-72
2021/10/13 10:30:08;;;;;;;;;35.67;34.00;17.20;51.40;;;;;;4862645;29;8881;-70
2021/10/13 10:32:35;;;;;;;;;40.00;36.00;17.40;50.60;;;;;;4863018;29;9461;-71
2021/10/13 10:35:04;;;;;;;;;41.75;36.25;17.60;50.50;;;;;;4862545;29;8821;-72
2021/10/13 10:37:48;;;;;;;;;42.67;37.67;17.90;50.30;;;;;;4862688;29;8793;-76
2021/10/13 10:40:36;;;;;;;;;40.67;35.33;18.40;48.40;;;;;;4862726;29;8841;-71
2021/10/13 10:43:06;;;;;;;;;25.67;25.67;19.20;47.80;;;;;;4862559;29;8893;-71
2021/10/13 10:45:34;;;;;;;;;36.00;33.67;19.60;45.10;;;;;;4862664;29;8813;-71
2021/10/13 10:48:00;;;;;;;;;26.67;25.67;19.90;45.10;;;;;;4862763;29;8794;-70
2021/10/13 10:50:33;;;;;;;;;26.67;26.33;21.50;42.10;;;;;;4862211;29;8852;-69
2021/10/13 10:53:18;;;;;;;;;23.33;23.33;23.10;37.60;;;;;;4862616;29;8847;-69
2021/10/13 10:55:45;;;;;;;;;23.67;23.67;23.90;35.60;;;;;;4862009;29;8813;-70
2021/10/13 10:58:13;;;;;;;;;20.00;20.00;23.60;35.50;;;;;;4862584;29;8924;-69
2021/10/13 11:00:39;;;;;;;;;24.67;24.67;22.50;35.40;;;;;;4862183;29;8801;-69
2021/10/13 11:03:20;;;;;;;;;22.33;22.33;21.80;37.30;;;;;;4862384;29;8904;-70
2021/10/13 11:05:46;;;;;;;;;26.33;26.33;21.20;39.10;;;;;;4862372;29;8912;-69
2021/10/13 11:08:12;;;;;;;;;26.00;26.00;21.30;39.40;;;;;;4862262;29;8898;-70
2021/10/13 11:10:39;;;;;;;;;20.00;20.00;23.80;35.70;;;;;;4862010;29;8856;-71
2021/10/13 11:13:05;;;;;;;;;20.67;20.67;24.20;32.00;;;;;;4862168;29;8798;-71
2021/10/13 11:15:32;;;;;;;;;21.00;21.00;23.00;34.10;;;;;;4862098;29;8809;-71
2021/10/13 11:18:14;;;;;;;;;23.00;22.67;22.00;37.10;;;;;;4862010;29;11745;-66
2021/10/13 11:20:40;;;;;;;;;26.33;26.33;21.10;38.40;;;;;;4862176;29;8885;-68
2021/10/13 11:23:08;;;;;;;;;26.67;26.67;20.70;40.80;;;;;;4862038;29;8904;-71
2021/10/13 11:25:35;;;;;;;;;25.67;25.67;20.60;41.00;;;;;;4861667;29;8794;-72
2021/10/13 11:28:11;;;;;;;;;30.67;30.67;20.20;41.20;;;;;;4862194;29;8813;-70
2021/10/13 11:30:43;;;;;;;;;32.67;32.33;19.80;42.70;;;;;;4862142;29;9516;-70
2021/10/13 11:33:11;;;;;;;;;35.67;33.00;19.40;42.70;;;;;;4861852;29;8785;-69
2021/10/13 11:35:38;;;;;;;;;32.33;31.33;19.10;44.10;;;;;;4861853;29;8801;-68
2021/10/13 11:38:05;;;;;;;;;25.67;25.67;18.90;44.70;;;;;;4861539;29;8782;-69
2021/10/13 11:40:32;;;;;;;;;28.33;28.33;18.90;44.60;;;;;;4861861;29;8925;-71
2021/10/13 11:43:05;;;;;;;;;28.00;27.33;18.70;45.00;;;;;;4862057;29;8832;-69
2021/10/13 11:45:31;;;;;;;;;25.67;25.67;19.00;44.50;;;;;;4861762;29;8817;-69
2021/10/13 11:51:19;;;;;;;;;26.67;26.67;18.60;44.20;;;;;;4861406;29;8793;-69
2021/10/13 11:53:50;;;;;;;;;26.67;26.67;18.20;45.80;;;;;;4861757;29;8861;-69
2021/10/13 11:56:20;;;;;;;;;24.67;24.67;17.80;46.40;;;;;;4861560;29;8786;-68
2021/10/13 11:58:46;;;;;;;;;25.33;25.33;17.30;47.40;;;;;;4861547;29;8793;-69
2021/10/13 12:01:15;;;;;;;;;25.00;25.00;17.20;48.70;;;;;;4862009;29;8801;-69
2021/10/13 12:03:41;;;;;;;;;30.33;30.33;17.10;49.60;;;;;;4861439;29;8939;-70
2021/10/13 12:06:08;;;;;;;;;22.00;22.00;17.00;50.30;;;;;;4861352;29;8941;-68
2021/10/13 12:08:35;;;;;;;;;23.67;23.67;16.70;50.50;;;;;;4861793;29;9587;-70
2021/10/13 12:11:18;;;;;;;;;27.00;26.67;16.50;51.30;;;;;;4861474;29;8907;-70
2021/10/13 12:13:46;;;;;;;;;23.33;23.33;16.50;52.00;;;;;;4861753;29;8801;-64
2021/10/13 12:16:18;;;;;;;;;27.00;27.00;16.60;52.20;;;;;;4861530;29;8793;-63
2021/10/13 12:18:47;;;;;;;;;25.67;25.67;16.80;52.20;;;;;;4861586;29;8782;-64
2021/10/13 12:21:18;;;;;;;;;24.00;24.00;16.80;51.80;;;;;;4861530;29;8802;-65
2021/10/13 12:23:46;;;;;;;;;26.00;26.00;16.80;51.90;;;;;;4861480;29;8790;-65
2021/10/13 12:26:23;;;;;;;;;23.00;23.00;16.90;51.80;;;;;;4860410;29;8821;-64
2021/10/13 12:28:53;;;;;;;;;27.00;27.00;16.90;51.30;;;;;;4861359;29;8802;-63
2021/10/13 12:31:21;;;;;;;;;27.00;27.00;16.80;50.90;;;;;;4861485;29;8825;-64
2021/10/13 12:33:54;;;;;;;;;21.00;21.00;16.90;52.10;;;;;;4861285;29;8778;-65
2021/10/13 12:36:41;;;;;;;;;26.00;26.00;16.70;50.30;;;;;;4861241;29;8785;-65
2021/10/13 12:39:10;;;;;;;;;25.33;25.33;16.70;50.00;;;;;;4863486;29;8828;-65
2021/10/13 12:41:41;;;;;;;;;24.67;24.67;16.60;50.60;;;;;;4864943;29;8864;-64
2021/10/13 12:44:14;;;;;;;;;48.25;41.50;16.80;50.50;;;;;;4864172;29;8809;-65
2021/10/13 12:46:53;;;;;;;;;26.67;26.67;16.60;50.90;;;;;;4864882;29;8790;-65
2021/10/13 12:49:19;;;;;;;;;20.33;20.33;16.60;51.50;;;;;;4865030;29;8832;-65